sensor_id;sensor_type;location;lat;lon;timestamp;temperature;humidity
53310;DHT22;39197;53.200;5.792;2023-08-24T00:02:01;16.20;99.90
53310;DHT22;39197;53.200;5.792;2023-08-24T00:04:27;16.10;99.90
53310;DHT22;39197;53.200;5.792;2023-08-24T00:06:54;16.10;99.90
53310;DHT22;39197;53.200;5.792;2023-08-24T00:09:19;16.20;99.90
53310;DHT22;39197;53.200;5.792;2023-08-24T00:11:45;16.10;99.90
53310;DHT22;39197;53.200;5.792;2023-08-24T00:14:11;16.10;99.90
53310;DHT22;39197;53.200;5.792;2023-08-24T00:16:37;16.10;99.90
53310;DHT22;39197;53.200;5.792;2023-08-24T00:19:03;16.20;99.90
53310;DHT22;39197;53.200;5.792;2023-08-24T00:21:28;16.20;99.90
53310;DHT22;39197;53.200;5.792;2023-08-24T00:23:54;16.20;99.90
53310;DHT22;39197;53.200;5.792;2023-08-24T00:26:20;16.20;99.90
53310;DHT22;39197;53.200;5.792;2023-08-24T00:28:46;16.20;99.90
53310;DHT22;39197;53.200;5.792;2023-08-24T00:31:11;16.20;99.90
53310;DHT22;39197;53.200;5.792;2023-08-24T00:33:37;16.20;99.90
53310;DHT22;39197;53.200;5.792;2023-08-24T00:36:05;16.20;99.90
53310;DHT22;39197;53.200;5.792;2023-08-24T00:38:32;16.20;99.90
53310;DHT22;39197;53.200;5.792;2023-08-24T00:40:58;16.20;99.90
53310;DHT22;39197;53.200;5.792;2023-08-24T00:43:27;16.20;99.90
53310;DHT22;39197;53.200;5.792;2023-08-24T00:45:59;16.20;99.90
53310;DHT22;39197;53.200;5.792;2023-08-24T00:48:26;16.20;99.90
53310;DHT22;39197;53.200;5.792;2023-08-24T00:50:59;16.20;99.90
53310;DHT22;39197;53.200;5.792;2023-08-24T00:53:25;16.20;99.90
53310;DHT22;39197;53.200;5.792;2023-08-24T00:55:52;16.20;99.90
53310;DHT22;39197;53.200;5.792;2023-08-24T00:58:18;16.30;99.90
53310;DHT22;39197;53.200;5.792;2023-08-24T01:00:45;16.30;99.90
53310;DHT22;39197;53.200;5.792;2023-08-24T01:03:11;16.30;99.90
53310;DHT22;39197;53.200;5.792;2023-08-24T01:05:37;16.30;99.90
53310;DHT22;39197;53.200;5.792;2023-08-24T01:08:03;16.30;99.90
53310;DHT22;39197;53.200;5.792;2023-08-24T01:13:33;16.30;99.90
53310;DHT22;39197;53.200;5.792;2023-08-24T01:16:16;16.30;99.90
53310;DHT22;39197;53.200;5.792;2023-08-24T01:18:44;16.30;99.90
53310;DHT22;39197;53.200;5.792;2023-08-24T01:21:10;16.30;99.90
53310;DHT22;39197;53.200;5.792;2023-08-24T01:23:53;16.30;99.90
53310;DHT22;39197;53.200;5.792;2023-08-24T01:26:22;16.30;99.90
53310;DHT22;39197;53.200;5.792;2023-08-24T01:28:48;16.30;99.90
53310;DHT22;39197;53.200;5.792;2023-08-24T01:31:15;16.30;99.90
53310;DHT22;39197;53.200;5.792;2023-08-24T01:33:41;16.40;99.90
53310;DHT22;39197;53.200;5.792;2023-08-24T01:36:09;16.40;99.90
53310;DHT22;39197;53.200;5.792;2023-08-24T01:38:35;16.50;99.90
53310;DHT22;39197;53.200;5.792;2023-08-24T01:41:20;16.50;99.90
53310;DHT22;39197;53.200;5.792;2023-08-24T01:43:54;16.60;99.90
53310;DHT22;39197;53.200;5.792;2023-08-24T01:46:21;16.60;99.90
53310;DHT22;39197;53.200;5.792;2023-08-24T01:48:48;16.60;99.90
53310;DHT22;39197;53.200;5.792;2023-08-24T01:51:15;16.60;99.90
53310;DHT22;39197;53.200;5.792;2023-08-24T01:53:41;16.70;99.90
53310;DHT22;39197;53.200;5.792;2023-08-24T01:56:09;16.70;99.90
53310;DHT22;39197;53.200;5.792;2023-08-24T01:58:35;16.70;99.90
53310;DHT22;39197;53.200;5.792;2023-08-24T02:01:01;16.70;99.90
53310;DHT22;39197;53.200;5.792;2023-08-24T02:03:26;16.70;99.90
53310;DHT22;39197;53.200;5.792;2023-08-24T02:05:52;16.70;99.90
53310;DHT22;39197;53.200;5.792;2023-08-24T02:08:17;16.60;99.90
53310;DHT22;39197;53.200;5.792;2023-08-24T02:10:43;16.70;99.90
53310;DHT22;39197;53.200;5.792;2023-08-24T02:13:09;16.70;99.90
53310;DHT22;39197;53.200;5.792;2023-08-24T02:15:34;16.60;99.90
53310;DHT22;39197;53.200;5.792;2023-08-24T02:18:00;16.60;99.90
53310;DHT22;39197;53.200;5.792;2023-08-24T02:20:26;16.60;99.90
53310;DHT22;39197;53.200;5.792;2023-08-24T02:22:51;16.50;99.90
53310;DHT22;39197;53.200;5.792;2023-08-24T02:25:17;16.50;99.90
53310;DHT22;39197;53.200;5.792;2023-08-24T02:27:42;16.50;99.90
53310;DHT22;39197;53.200;5.792;2023-08-24T02:30:08;16.40;99.90
53310;DHT22;39197;53.200;5.792;2023-08-24T02:32:34;16.40;99.90
53310;DHT22;39197;53.200;5.792;2023-08-24T02:35:00;16.40;99.90
53310;DHT22;39197;53.200;5.792;2023-08-24T02:37:25;16.40;99.90
53310;DHT22;39197;53.200;5.792;2023-08-24T02:39:51;16.40;99.90
53310;DHT22;39197;53.200;5.792;2023-08-24T02:42:17;16.30;99.90
53310;DHT22;39197;53.200;5.792;2023-08-24T02:44:43;16.30;99.90
53310;DHT22;39197;53.200;5.792;2023-08-24T02:47:08;16.20;99.90
53310;DHT22;39197;53.200;5.792;2023-08-24T02:49:34;16.20;99.90
53310;DHT22;39197;53.200;5.792;2023-08-24T02:52:00;16.20;99.90
53310;DHT22;39197;53.200;5.792;2023-08-24T02:54:26;16.20;99.90
53310;DHT22;39197;53.200;5.792;2023-08-24T02:56:51;16.10;99.90
53310;DHT22;39197;53.200;5.792;2023-08-24T02:59:18;16.10;99.90
53310;DHT22;39197;53.200;5.792;2023-08-24T03:01:44;16.00;99.90
53310;DHT22;39197;53.200;5.792;2023-08-24T03:04:09;16.00;99.90
53310;DHT22;39197;53.200;5.792;2023-08-24T03:06:35;15.90;99.90
53310;DHT22;39197;53.200;5.792;2023-08-24T03:09:02;15.90;99.90
53310;DHT22;39197;53.200;5.792;2023-08-24T03:11:31;15.90;99.90
53310;DHT22;39197;53.200;5.792;2023-08-24T03:13:57;15.90;99.90
53310;DHT22;39197;53.200;5.792;2023-08-24T03:16:22;15.90;99.90
53310;DHT22;39197;53.200;5.792;2023-08-24T03:18:48;15.80;99.90
53310;DHT22;39197;53.200;5.792;2023-08-24T03:21:15;15.90;99.90
53310;DHT22;39197;53.200;5.792;2023-08-24T03:23:40;15.80;99.90
53310;DHT22;39197;53.200;5.792;2023-08-24T03:28:37;15.90;99.90
53310;DHT22;39197;53.200;5.792;2023-08-24T03:31:02;15.90;99.90
53310;DHT22;39197;53.200;5.792;2023-08-24T03:33:28;15.90;99.90
53310;DHT22;39197;53.200;5.792;2023-08-24T03:35:54;15.90;99.90
53310;DHT22;39197;53.200;5.792;2023-08-24T03:38:19;15.90;99.90
53310;DHT22;39197;53.200;5.792;2023-08-24T03:40:45;15.90;99.90
53310;DHT22;39197;53.200;5.792;2023-08-24T03:43:11;15.90;99.90
53310;DHT22;39197;53.200;5.792;2023-08-24T03:45:38;16.00;99.90
53310;DHT22;39197;53.200;5.792;2023-08-24T03:48:03;16.10;99.90
53310;DHT22;39197;53.200;5.792;2023-08-24T03:50:29;16.00;99.90
53310;DHT22;39197;53.200;5.792;2023-08-24T03:52:55;16.00;99.90
53310;DHT22;39197;53.200;5.792;2023-08-24T03:55:21;16.00;99.90
53310;DHT22;39197;53.200;5.792;2023-08-24T03:57:47;16.00;99.90
53310;DHT22;39197;53.200;5.792;2023-08-24T04:00:13;16.00;99.90
53310;DHT22;39197;53.200;5.792;2023-08-24T04:02:43;15.90;99.90
53310;DHT22;39197;53.200;5.792;2023-08-24T04:05:08;15.90;99.90
53310;DHT22;39197;53.200;5.792;2023-08-24T04:07:34;15.90;99.90
53310;DHT22;39197;53.200;5.792;2023-08-24T04:10:02;15.90;99.90
53310;DHT22;39197;53.200;5.792;2023-08-24T04:12:30;15.90;99.90
53310;DHT22;39197;53.200;5.792;2023-08-24T04:14:56;15.90;99.90
53310;DHT22;39197;53.200;5.792;2023-08-24T04:17:23;15.90;99.90
53310;DHT22;39197;53.200;5.792;2023-08-24T04:19:49;15.80;99.90
53310;DHT22;39197;53.200;5.792;2023-08-24T04:22:15;15.90;99.90
53310;DHT22;39197;53.200;5.792;2023-08-24T04:24:40;15.90;99.90
53310;DHT22;39197;53.200;5.792;2023-08-24T04:27:06;15.80;99.90
53310;DHT22;39197;53.200;5.792;2023-08-24T04:29:31;15.80;99.90
53310;DHT22;39197;53.200;5.792;2023-08-24T04:31:57;15.80;99.90
53310;DHT22;39197;53.200;5.792;2023-08-24T04:34:23;15.80;99.90
53310;DHT22;39197;53.200;5.792;2023-08-24T04:36:48;15.70;99.90
53310;DHT22;39197;53.200;5.792;2023-08-24T04:39:15;15.70;99.90
53310;DHT22;39197;53.200;5.792;2023-08-24T04:41:40;15.70;99.90
53310;DHT22;39197;53.200;5.792;2023-08-24T04:44:06;15.70;99.90
53310;DHT22;39197;53.200;5.792;2023-08-24T04:46:33;15.70;99.90
53310;DHT22;39197;53.200;5.792;2023-08-24T04:48:59;15.70;99.90
53310;DHT22;39197;53.200;5.792;2023-08-24T04:51:25;15.70;99.90
53310;DHT22;39197;53.200;5.792;2023-08-24T04:53:53;15.70;99.90
53310;DHT22;39197;53.200;5.792;2023-08-24T04:56:19;15.70;99.90
53310;DHT22;39197;53.200;5.792;2023-08-24T04:58:57;15.70;99.90
53310;DHT22;39197;53.200;5.792;2023-08-24T05:01:27;15.70;99.90
53310;DHT22;39197;53.200;5.792;2023-08-24T05:03:53;15.60;99.90
53310;DHT22;39197;53.200;5.792;2023-08-24T05:06:19;15.60;99.90
53310;DHT22;39197;53.200;5.792;2023-08-24T05:08:45;15.70;99.90
53310;DHT22;39197;53.200;5.792;2023-08-24T05:11:12;15.60;99.90
53310;DHT22;39197;53.200;5.792;2023-08-24T05:13:39;15.60;99.90
53310;DHT22;39197;53.200;5.792;2023-08-24T05:16:05;15.60;99.90
53310;DHT22;39197;53.200;5.792;2023-08-24T05:18:30;15.60;99.90
53310;DHT22;39197;53.200;5.792;2023-08-24T05:20:56;15.60;99.90
53310;DHT22;39197;53.200;5.792;2023-08-24T05:23:22;15.60;99.90
53310;DHT22;39197;53.200;5.792;2023-08-24T05:25:47;15.60;99.90
53310;DHT22;39197;53.200;5.792;2023-08-24T05:28:13;15.60;99.90
53310;DHT22;39197;53.200;5.792;2023-08-24T05:30:39;15.60;99.90
53310;DHT22;39197;53.200;5.792;2023-08-24T05:33:04;15.60;99.90
53310;DHT22;39197;53.200;5.792;2023-08-24T05:35:30;15.60;99.90
53310;DHT22;39197;53.200;5.792;2023-08-24T05:37:55;15.60;99.90
53310;DHT22;39197;53.200;5.792;2023-08-24T05:40:21;15.60;99.90
53310;DHT22;39197;53.200;5.792;2023-08-24T05:42:46;15.70;99.90
53310;DHT22;39197;53.200;5.792;2023-08-24T05:45:12;15.70;99.90
53310;DHT22;39197;53.200;5.792;2023-08-24T05:47:38;15.80;99.90
53310;DHT22;39197;53.200;5.792;2023-08-24T05:50:03;15.80;99.90
53310;DHT22;39197;53.200;5.792;2023-08-24T05:52:29;15.90;99.90
53310;DHT22;39197;53.200;5.792;2023-08-24T05:54:55;15.90;99.90
53310;DHT22;39197;53.200;5.792;2023-08-24T05:57:20;15.90;99.90
53310;DHT22;39197;53.200;5.792;2023-08-24T05:59:46;16.00;99.90
53310;DHT22;39197;53.200;5.792;2023-08-24T06:02:11;16.00;99.90
53310;DHT22;39197;53.200;5.792;2023-08-24T06:04:37;16.10;99.90
53310;DHT22;39197;53.200;5.792;2023-08-24T06:07:03;16.10;99.90
53310;DHT22;39197;53.200;5.792;2023-08-24T06:09:30;16.20;99.90
53310;DHT22;39197;53.200;5.792;2023-08-24T06:11:57;16.20;99.90
53310;DHT22;39197;53.200;5.792;2023-08-24T06:14:22;16.30;99.90
53310;DHT22;39197;53.200;5.792;2023-08-24T06:16:48;16.40;99.90
53310;DHT22;39197;53.200;5.792;2023-08-24T06:19:14;16.50;99.90
53310;DHT22;39197;53.200;5.792;2023-08-24T06:21:40;16.50;99.90
53310;DHT22;39197;53.200;5.792;2023-08-24T06:24:05;16.50;99.90
53310;DHT22;39197;53.200;5.792;2023-08-24T06:26:31;16.60;99.90
53310;DHT22;39197;53.200;5.792;2023-08-24T06:28:57;16.70;99.90
53310;DHT22;39197;53.200;5.792;2023-08-24T06:31:22;16.70;99.90
53310;DHT22;39197;53.200;5.792;2023-08-24T06:33:49;16.80;99.90
53310;DHT22;39197;53.200;5.792;2023-08-24T06:36:15;16.80;99.90
53310;DHT22;39197;53.200;5.792;2023-08-24T06:38:40;16.90;99.90
53310;DHT22;39197;53.200;5.792;2023-08-24T06:41:06;16.90;99.90
53310;DHT22;39197;53.200;5.792;2023-08-24T06:43:36;17.00;99.90
53310;DHT22;39197;53.200;5.792;2023-08-24T06:46:04;17.10;99.90
53310;DHT22;39197;53.200;5.792;2023-08-24T06:48:36;17.20;99.90
53310;DHT22;39197;53.200;5.792;2023-08-24T06:51:07;17.20;99.90
53310;DHT22;39197;53.200;5.792;2023-08-24T06:53:34;17.30;99.90
53310;DHT22;39197;53.200;5.792;2023-08-24T06:55:59;17.50;99.90
53310;DHT22;39197;53.200;5.792;2023-08-24T06:58:25;17.80;99.90
53310;DHT22;39197;53.200;5.792;2023-08-24T07:00:50;18.00;99.90
53310;DHT22;39197;53.200;5.792;2023-08-24T07:03:19;18.00;99.90
53310;DHT22;39197;53.200;5.792;2023-08-24T07:05:45;18.10;99.90
53310;DHT22;39197;53.200;5.792;2023-08-24T07:08:12;18.20;99.90
53310;DHT22;39197;53.200;5.792;2023-08-24T07:10:38;18.30;99.90
53310;DHT22;39197;53.200;5.792;2023-08-24T07:13:07;18.50;99.90
53310;DHT22;39197;53.200;5.792;2023-08-24T07:15:33;18.60;99.90
53310;DHT22;39197;53.200;5.792;2023-08-24T07:18:01;18.80;99.90
53310;DHT22;39197;53.200;5.792;2023-08-24T07:20:27;19.30;99.90
53310;DHT22;39197;53.200;5.792;2023-08-24T07:22:53;20.10;99.90
53310;DHT22;39197;53.200;5.792;2023-08-24T07:25:19;20.50;99.90
53310;DHT22;39197;53.200;5.792;2023-08-24T07:27:46;20.90;99.90
53310;DHT22;39197;53.200;5.792;2023-08-24T07:30:12;21.10;99.90
53310;DHT22;39197;53.200;5.792;2023-08-24T07:32:38;21.60;99.90
53310;DHT22;39197;53.200;5.792;2023-08-24T07:35:04;22.20;99.90
53310;DHT22;39197;53.200;5.792;2023-08-24T07:37:31;22.80;99.90
53310;DHT22;39197;53.200;5.792;2023-08-24T07:39:57;23.10;99.90
53310;DHT22;39197;53.200;5.792;2023-08-24T07:42:23;23.60;99.90
53310;DHT22;39197;53.200;5.792;2023-08-24T07:44:48;23.90;99.90
53310;DHT22;39197;53.200;5.792;2023-08-24T07:47:14;23.90;99.90
53310;DHT22;39197;53.200;5.792;2023-08-24T07:49:40;24.00;99.90
53310;DHT22;39197;53.200;5.792;2023-08-24T07:52:10;24.00;99.90
53310;DHT22;39197;53.200;5.792;2023-08-24T07:54:36;24.00;99.90
53310;DHT22;39197;53.200;5.792;2023-08-24T07:57:02;24.00;99.90
53310;DHT22;39197;53.200;5.792;2023-08-24T07:59:27;23.90;99.90
53310;DHT22;39197;53.200;5.792;2023-08-24T08:01:53;24.00;99.90
53310;DHT22;39197;53.200;5.792;2023-08-24T08:04:19;24.00;99.90
53310;DHT22;39197;53.200;5.792;2023-08-24T08:06:44;24.00;99.90
53310;DHT22;39197;53.200;5.792;2023-08-24T08:09:10;24.00;99.90
53310;DHT22;39197;53.200;5.792;2023-08-24T08:11:36;23.80;99.90
53310;DHT22;39197;53.200;5.792;2023-08-24T08:14:02;23.90;99.90
53310;DHT22;39197;53.200;5.792;2023-08-24T08:16:27;24.10;99.90
53310;DHT22;39197;53.200;5.792;2023-08-24T08:18:53;24.00;99.90
53310;DHT22;39197;53.200;5.792;2023-08-24T08:21:18;24.30;99.90
53310;DHT22;39197;53.200;5.792;2023-08-24T08:23:44;24.60;99.90
53310;DHT22;39197;53.200;5.792;2023-08-24T08:26:13;24.80;99.90
53310;DHT22;39197;53.200;5.792;2023-08-24T08:28:42;24.90;99.90
53310;DHT22;39197;53.200;5.792;2023-08-24T08:31:07;24.70;99.90
53310;DHT22;39197;53.200;5.792;2023-08-24T08:33:33;24.40;99.90
53310;DHT22;39197;53.200;5.792;2023-08-24T08:35:59;24.60;99.90
53310;DHT22;39197;53.200;5.792;2023-08-24T08:38:24;24.70;99.90
53310;DHT22;39197;53.200;5.792;2023-08-24T08:41:03;24.80;99.90
53310;DHT22;39197;53.200;5.792;2023-08-24T08:43:29;24.40;99.90
53310;DHT22;39197;53.200;5.792;2023-08-24T08:45:56;24.40;99.90
53310;DHT22;39197;53.200;5.792;2023-08-24T08:48:22;24.40;99.90
53310;DHT22;39197;53.200;5.792;2023-08-24T08:50:49;24.20;99.90
53310;DHT22;39197;53.200;5.792;2023-08-24T08:53:15;24.40;99.90
53310;DHT22;39197;53.200;5.792;2023-08-24T08:55:43;24.40;99.90
53310;DHT22;39197;53.200;5.792;2023-08-24T08:58:10;24.50;99.90
53310;DHT22;39197;53.200;5.792;2023-08-24T09:00:37;24.60;99.90
53310;DHT22;39197;53.200;5.792;2023-08-24T09:03:04;24.40;99.90
53310;DHT22;39197;53.200;5.792;2023-08-24T09:05:31;24.10;99.90
53310;DHT22;39197;53.200;5.792;2023-08-24T09:07:57;24.00;99.90
53310;DHT22;39197;53.200;5.792;2023-08-24T09:10:23;23.80;99.90
53310;DHT22;39197;53.200;5.792;2023-08-24T09:12:49;23.30;99.90
53310;DHT22;39197;53.200;5.792;2023-08-24T09:15:24;23.20;99.90
53310;DHT22;39197;53.200;5.792;2023-08-24T09:17:50;23.10;99.90
53310;DHT22;39197;53.200;5.792;2023-08-24T09:20:16;23.00;99.90
53310;DHT22;39197;53.200;5.792;2023-08-24T09:22:43;22.70;99.90
53310;DHT22;39197;53.200;5.792;2023-08-24T09:25:10;22.60;99.90
53310;DHT22;39197;53.200;5.792;2023-08-24T09:27:36;22.30;99.90
53310;DHT22;39197;53.200;5.792;2023-08-24T09:30:02;22.20;99.90
53310;DHT22;39197;53.200;5.792;2023-08-24T09:32:29;22.10;99.90
53310;DHT22;39197;53.200;5.792;2023-08-24T09:34:55;21.90;99.90
53310;DHT22;39197;53.200;5.792;2023-08-24T09:37:21;21.80;99.90
53310;DHT22;39197;53.200;5.792;2023-08-24T09:39:47;21.60;99.90
53310;DHT22;39197;53.200;5.792;2023-08-24T09:42:13;21.40;99.90
53310;DHT22;39197;53.200;5.792;2023-08-24T09:44:45;21.40;99.90
53310;DHT22;39197;53.200;5.792;2023-08-24T09:47:13;21.30;99.90
53310;DHT22;39197;53.200;5.792;2023-08-24T09:49:39;21.20;99.90
53310;DHT22;39197;53.200;5.792;2023-08-24T09:52:08;21.20;99.90
53310;DHT22;39197;53.200;5.792;2023-08-24T09:54:38;21.10;99.90
53310;DHT22;39197;53.200;5.792;2023-08-24T09:57:05;21.10;99.90
53310;DHT22;39197;53.200;5.792;2023-08-24T09:59:35;21.00;99.90
53310;DHT22;39197;53.200;5.792;2023-08-24T10:02:12;21.00;99.90
53310;DHT22;39197;53.200;5.792;2023-08-24T10:04:40;21.00;99.90
53310;DHT22;39197;53.200;5.792;2023-08-24T10:07:11;21.00;99.90
53310;DHT22;39197;53.200;5.792;2023-08-24T10:10:02;20.90;99.90
53310;DHT22;39197;53.200;5.792;2023-08-24T10:12:28;20.80;99.90
53310;DHT22;39197;53.200;5.792;2023-08-24T10:15:00;20.80;99.90
53310;DHT22;39197;53.200;5.792;2023-08-24T10:17:33;20.80;99.90
53310;DHT22;39197;53.200;5.792;2023-08-24T10:20:01;20.60;99.90
53310;DHT22;39197;53.200;5.792;2023-08-24T10:22:28;20.60;99.90
53310;DHT22;39197;53.200;5.792;2023-08-24T10:24:55;20.50;99.90
53310;DHT22;39197;53.200;5.792;2023-08-24T10:27:27;20.50;99.90
53310;DHT22;39197;53.200;5.792;2023-08-24T10:29:52;20.40;99.90
53310;DHT22;39197;53.200;5.792;2023-08-24T10:32:20;20.40;99.90
53310;DHT22;39197;53.200;5.792;2023-08-24T10:34:46;20.40;99.90
53310;DHT22;39197;53.200;5.792;2023-08-24T10:37:12;20.30;99.90
53310;DHT22;39197;53.200;5.792;2023-08-24T10:39:44;20.30;99.90
53310;DHT22;39197;53.200;5.792;2023-08-24T10:42:13;20.20;99.90
53310;DHT22;39197;53.200;5.792;2023-08-24T10:44:43;20.20;99.90
53310;DHT22;39197;53.200;5.792;2023-08-24T10:47:18;20.20;99.90
53310;DHT22;39197;53.200;5.792;2023-08-24T10:49:58;20.10;99.90
53310;DHT22;39197;53.200;5.792;2023-08-24T10:52:46;20.20;99.90
53310;DHT22;39197;53.200;5.792;2023-08-24T10:55:26;20.10;99.90
53310;DHT22;39197;53.200;5.792;2023-08-24T10:58:02;20.00;99.90
53310;DHT22;39197;53.200;5.792;2023-08-24T11:00:29;20.00;99.90
53310;DHT22;39197;53.200;5.792;2023-08-24T11:02:56;19.90;99.90
53310;DHT22;39197;53.200;5.792;2023-08-24T11:05:29;19.90;99.90
53310;DHT22;39197;53.200;5.792;2023-08-24T11:08:05;19.80;99.90
53310;DHT22;39197;53.200;5.792;2023-08-24T11:13:15;19.70;99.90
53310;DHT22;39197;53.200;5.792;2023-08-24T11:20:47;19.60;99.90
53310;DHT22;39197;53.200;5.792;2023-08-24T11:23:15;19.50;99.90
53310;DHT22;39197;53.200;5.792;2023-08-24T11:25:41;19.60;99.90
53310;DHT22;39197;53.200;5.792;2023-08-24T11:28:07;19.50;99.90
53310;DHT22;39197;53.200;5.792;2023-08-24T11:30:33;19.60;99.90
53310;DHT22;39197;53.200;5.792;2023-08-24T11:33:00;19.60;99.90
53310;DHT22;39197;53.200;5.792;2023-08-24T11:35:26;19.50;99.90
53310;DHT22;39197;53.200;5.792;2023-08-24T11:37:57;19.50;99.90
53310;DHT22;39197;53.200;5.792;2023-08-24T11:40:23;19.50;99.90
53310;DHT22;39197;53.200;5.792;2023-08-24T11:43:01;19.60;99.90
53310;DHT22;39197;53.200;5.792;2023-08-24T11:45:31;19.70;99.90
53310;DHT22;39197;53.200;5.792;2023-08-24T11:47:59;19.70;99.90
53310;DHT22;39197;53.200;5.792;2023-08-24T11:50:26;19.70;99.90
53310;DHT22;39197;53.200;5.792;2023-08-24T11:52:52;19.70;99.90
53310;DHT22;39197;53.200;5.792;2023-08-24T11:55:18;19.60;99.90
53310;DHT22;39197;53.200;5.792;2023-08-24T11:57:44;19.60;99.90
53310;DHT22;39197;53.200;5.792;2023-08-24T12:00:10;19.50;99.90
53310;DHT22;39197;53.200;5.792;2023-08-24T12:02:40;19.50;99.90
53310;DHT22;39197;53.200;5.792;2023-08-24T12:05:06;19.50;99.90
53310;DHT22;39197;53.200;5.792;2023-08-24T12:07:33;19.50;99.90
53310;DHT22;39197;53.200;5.792;2023-08-24T12:10:02;19.50;99.90
53310;DHT22;39197;53.200;5.792;2023-08-24T12:12:28;19.50;99.90
53310;DHT22;39197;53.200;5.792;2023-08-24T12:14:55;19.50;99.90
53310;DHT22;39197;53.200;5.792;2023-08-24T12:17:23;19.50;99.90
53310;DHT22;39197;53.200;5.792;2023-08-24T12:20:01;19.50;99.90
53310;DHT22;39197;53.200;5.792;2023-08-24T12:22:31;19.50;99.90
53310;DHT22;39197;53.200;5.792;2023-08-24T12:24:57;19.50;99.90
53310;DHT22;39197;53.200;5.792;2023-08-24T12:27:25;19.50;99.90
53310;DHT22;39197;53.200;5.792;2023-08-24T12:29:52;19.40;99.90
53310;DHT22;39197;53.200;5.792;2023-08-24T12:32:20;19.40;99.90
53310;DHT22;39197;53.200;5.792;2023-08-24T12:34:47;19.40;99.90
53310;DHT22;39197;53.200;5.792;2023-08-24T12:37:13;19.40;99.90
53310;DHT22;39197;53.200;5.792;2023-08-24T12:39:39;19.40;99.90
53310;DHT22;39197;53.200;5.792;2023-08-24T12:42:05;19.50;99.90
53310;DHT22;39197;53.200;5.792;2023-08-24T12:44:30;19.50;99.90
53310;DHT22;39197;53.200;5.792;2023-08-24T12:46:56;19.60;99.90
53310;DHT22;39197;53.200;5.792;2023-08-24T12:49:22;19.50;99.90
53310;DHT22;39197;53.200;5.792;2023-08-24T12:51:47;19.50;99.90
53310;DHT22;39197;53.200;5.792;2023-08-24T12:54:13;19.60;99.90
53310;DHT22;39197;53.200;5.792;2023-08-24T12:56:39;19.60;99.90
53310;DHT22;39197;53.200;5.792;2023-08-24T12:59:06;19.50;99.90
53310;DHT22;39197;53.200;5.792;2023-08-24T13:01:32;19.50;99.90
53310;DHT22;39197;53.200;5.792;2023-08-24T13:03:57;19.50;99.90
53310;DHT22;39197;53.200;5.792;2023-08-24T13:06:23;19.50;99.90
53310;DHT22;39197;53.200;5.792;2023-08-24T13:08:49;19.40;99.90
53310;DHT22;39197;53.200;5.792;2023-08-24T13:11:14;19.40;99.90
53310;DHT22;39197;53.200;5.792;2023-08-24T13:13:40;19.40;99.90
53310;DHT22;39197;53.200;5.792;2023-08-24T13:16:06;19.30;99.90
53310;DHT22;39197;53.200;5.792;2023-08-24T13:18:32;19.30;99.90
53310;DHT22;39197;53.200;5.792;2023-08-24T13:20:57;19.20;99.90
53310;DHT22;39197;53.200;5.792;2023-08-24T13:23:23;19.20;99.90
53310;DHT22;39197;53.200;5.792;2023-08-24T13:25:49;19.20;99.90
53310;DHT22;39197;53.200;5.792;2023-08-24T13:28:14;19.20;99.90
53310;DHT22;39197;53.200;5.792;2023-08-24T13:30:40;19.20;99.90
53310;DHT22;39197;53.200;5.792;2023-08-24T13:33:06;19.20;99.90
53310;DHT22;39197;53.200;5.792;2023-08-24T13:35:32;19.20;99.90
53310;DHT22;39197;53.200;5.792;2023-08-24T13:37:58;19.20;99.90
53310;DHT22;39197;53.200;5.792;2023-08-24T13:40:23;19.20;99.90
53310;DHT22;39197;53.200;5.792;2023-08-24T13:42:49;19.20;99.90
53310;DHT22;39197;53.200;5.792;2023-08-24T13:45:15;19.30;99.90
53310;DHT22;39197;53.200;5.792;2023-08-24T13:47:41;19.30;99.90
53310;DHT22;39197;53.200;5.792;2023-08-24T13:50:07;19.30;99.90
53310;DHT22;39197;53.200;5.792;2023-08-24T13:52:33;19.30;99.90
53310;DHT22;39197;53.200;5.792;2023-08-24T13:54:59;19.30;99.90
53310;DHT22;39197;53.200;5.792;2023-08-24T13:57:24;19.30;99.90
53310;DHT22;39197;53.200;5.792;2023-08-24T13:59:50;19.40;99.90
53310;DHT22;39197;53.200;5.792;2023-08-24T14:02:15;19.40;99.90
53310;DHT22;39197;53.200;5.792;2023-08-24T14:04:41;19.40;99.90
53310;DHT22;39197;53.200;5.792;2023-08-24T14:07:07;19.40;99.90
53310;DHT22;39197;53.200;5.792;2023-08-24T14:09:32;19.40;99.90
53310;DHT22;39197;53.200;5.792;2023-08-24T14:11:58;19.40;99.90
53310;DHT22;39197;53.200;5.792;2023-08-24T14:14:24;19.50;99.90
53310;DHT22;39197;53.200;5.792;2023-08-24T14:16:56;19.50;99.90
53310;DHT22;39197;53.200;5.792;2023-08-24T14:19:22;19.50;99.90
53310;DHT22;39197;53.200;5.792;2023-08-24T14:21:48;19.50;99.90
53310;DHT22;39197;53.200;5.792;2023-08-24T14:24:14;19.40;99.90
53310;DHT22;39197;53.200;5.792;2023-08-24T14:26:40;19.60;99.90
53310;DHT22;39197;53.200;5.792;2023-08-24T14:29:11;19.70;99.90
53310;DHT22;39197;53.200;5.792;2023-08-24T14:31:36;19.70;99.90
53310;DHT22;39197;53.200;5.792;2023-08-24T14:34:02;19.80;99.90
53310;DHT22;39197;53.200;5.792;2023-08-24T14:36:29;19.80;99.90
53310;DHT22;39197;53.200;5.792;2023-08-24T14:38:54;19.80;99.90
53310;DHT22;39197;53.200;5.792;2023-08-24T14:41:20;19.70;99.90
53310;DHT22;39197;53.200;5.792;2023-08-24T14:43:46;19.80;99.90
53310;DHT22;39197;53.200;5.792;2023-08-24T14:46:12;19.80;99.90
53310;DHT22;39197;53.200;5.792;2023-08-24T14:48:38;19.80;99.90
53310;DHT22;39197;53.200;5.792;2023-08-24T14:51:04;19.80;99.90
53310;DHT22;39197;53.200;5.792;2023-08-24T14:53:30;19.80;99.90
53310;DHT22;39197;53.200;5.792;2023-08-24T14:55:57;19.80;99.90
53310;DHT22;39197;53.200;5.792;2023-08-24T14:58:26;19.80;99.90
53310;DHT22;39197;53.200;5.792;2023-08-24T15:00:57;19.90;99.90
53310;DHT22;39197;53.200;5.792;2023-08-24T15:03:23;19.80;99.90
53310;DHT22;39197;53.200;5.792;2023-08-24T15:06:02;19.80;99.90
53310;DHT22;39197;53.200;5.792;2023-08-24T15:08:34;19.80;99.90
53310;DHT22;39197;53.200;5.792;2023-08-24T15:11:01;19.80;99.90
53310;DHT22;39197;53.200;5.792;2023-08-24T15:13:27;19.80;99.90
53310;DHT22;39197;53.200;5.792;2023-08-24T15:15:54;19.80;99.90
53310;DHT22;39197;53.200;5.792;2023-08-24T15:18:21;19.90;99.90
53310;DHT22;39197;53.200;5.792;2023-08-24T15:20:47;19.90;99.90
53310;DHT22;39197;53.200;5.792;2023-08-24T15:23:27;20.00;99.90
53310;DHT22;39197;53.200;5.792;2023-08-24T15:25:57;19.90;99.90
53310;DHT22;39197;53.200;5.792;2023-08-24T15:28:24;19.90;99.90
53310;DHT22;39197;53.200;5.792;2023-08-24T15:30:50;19.90;99.90
53310;DHT22;39197;53.200;5.792;2023-08-24T15:33:17;19.90;99.90
53310;DHT22;39197;53.200;5.792;2023-08-24T15:35:43;20.00;99.90
53310;DHT22;39197;53.200;5.792;2023-08-24T15:38:09;20.00;99.90
53310;DHT22;39197;53.200;5.792;2023-08-24T15:40:35;20.00;99.90
53310;DHT22;39197;53.200;5.792;2023-08-24T15:43:02;20.00;99.90